Time;durP1;ratioP1;P1;durP2;ratioP2;P2;SDS_P1;SDS_P2;PMS_P1;PMS_P2;Temp;Humidity;BMP_temperature;BMP_pressure;BME280_temperature;BME280_humidity;BME280_pressure;Samples;Min_cycle;Max_cycle;Signal;HPM_P1;HPM_P2
2021/06/08 00:01:18;;;;;;;11.45;7.75;;;17.60;99.90;;;;;;5073830;28;20027;-88
2021/06/08 00:03:43;;;;;;;7.60;6.90;;;17.50;99.90;;;;;;5073647;28;20025;-88
2021/06/08 00:06:12;;;;;;;10.52;7.95;;;17.60;99.90;;;;;;5073877;28;20633;-88
2021/06/08 00:08:38;;;;;;;9.27;7.60;;;17.50;99.90;;;;;;5075156;28;20025;-87
2021/06/08 00:11:03;;;;;;;9.25;7.78;;;17.50;99.90;;;;;;5074008;28;20031;-88
2021/06/08 00:13:29;;;;;;;11.68;7.70;;;17.50;99.90;;;;;;5074184;28;20078;-88
2021/06/08 00:15:55;;;;;;;9.73;7.47;;;17.30;99.90;;;;;;5073920;28;20005;-88
2021/06/08 00:18:21;;;;;;;11.55;7.82;;;17.20;99.90;;;;;;5073615;28;20073;-88
2021/06/08 00:20:47;;;;;;;8.52;7.57;;;17.00;99.90;;;;;;5074010;28;20052;-88
2021/06/08 00:23:13;;;;;;;10.90;8.30;;;17.10;99.90;;;;;;5074710;28;20074;-88
2021/06/08 00:25:42;;;;;;;9.93;7.93;;;17.00;99.90;;;;;;5075367;28;20044;-88
2021/06/08 00:28:09;;;;;;;9.77;8.00;;;17.00;99.90;;;;;;5076225;28;20024;-88
2021/06/08 00:30:35;;;;;;;11.77;8.75;;;17.00;99.90;;;;;;5073855;28;20042;-88
2021/06/08 00:33:01;;;;;;;12.25;8.15;;;17.10;99.90;;;;;;5073630;28;20035;-87
2021/06/08 00:35:27;;;;;;;13.05;8.90;;;17.20;99.90;;;;;;5073474;28;20485;-88
2021/06/08 00:37:54;;;;;;;13.07;8.50;;;17.30;99.90;;;;;;5074760;28;20074;-88
2021/06/08 00:40:20;;;;;;;12.15;9.63;;;17.20;99.90;;;;;;5073705;28;20063;-89
2021/06/08 00:42:46;;;;;;;14.05;8.68;;;17.20;99.90;;;;;;5074019;28;20017;-89
2021/06/08 00:45:12;;;;;;;12.25;9.15;;;17.20;99.90;;;;;;5073321;28;20058;-89
2021/06/08 00:47:38;;;;;;;13.65;8.90;;;17.30;99.90;;;;;;5073736;28;20032;-89
2021/06/08 00:50:04;;;;;;;13.40;9.00;;;17.20;99.90;;;;;;5073109;28;20036;-87
2021/06/08 00:52:30;;;;;;;13.60;9.65;;;17.10;99.90;;;;;;5074100;28;20100;-86
2021/06/08 00:54:56;;;;;;;15.02;9.52;;;17.20;99.90;;;;;;5073406;28;20124;-86
2021/06/08 00:57:21;;;;;;;12.55;9.43;;;17.10;99.90;;;;;;5074219;28;20020;-87
2021/06/08 00:59:48;;;;;;;10.68;9.57;;;17.20;99.90;;;;;;5074384;28;20480;-87
2021/06/08 01:02:16;;;;;;;12.75;9.48;;;17.20;99.90;;;;;;5074296;28;20095;-87
2021/06/08 01:04:42;;;;;;;13.32;8.88;;;17.20;99.90;;;;;;5072877;28;20021;-88
2021/06/08 01:07:12;;;;;;;13.98;9.90;;;17.20;99.90;;;;;;5073218;28;20032;-87
2021/06/08 01:09:37;;;;;;;12.30;9.93;;;17.20;99.90;;;;;;5073163;28;20503;-87
2021/06/08 01:12:03;;;;;;;11.52;9.70;;;17.10;99.90;;;;;;5073436;28;20024;-87
2021/06/08 01:14:29;;;;;;;11.73;9.63;;;17.00;99.90;;;;;;5073463;28;20060;-87
2021/06/08 01:16:55;;;;;;;13.23;9.40;;;17.00;99.90;;;;;;5073117;28;20017;-88
2021/06/08 01:19:21;;;;;;;20.63;10.55;;;17.00;99.90;;;;;;5073264;28;20767;-87
2021/06/08 01:21:46;;;;;;;11.60;10.40;;;17.10;99.90;;;;;;5073323;28;20465;-87
2021/06/08 01:24:12;;;;;;;12.02;10.07;;;17.10;99.90;;;;;;5072947;28;20043;-87
2021/06/08 01:26:41;;;;;;;14.32;10.52;;;17.00;99.90;;;;;;5073084;28;20565;-88
2021/06/08 01:29:08;;;;;;;12.80;10.65;;;16.90;99.90;;;;;;5073059;28;20564;-87
2021/06/08 01:31:35;;;;;;;12.30;10.43;;;16.80;99.90;;;;;;5074024;28;20024;-87
2021/06/08 01:34:03;;;;;;;14.05;10.40;;;16.80;99.90;;;;;;5072532;28;20028;-87
2021/06/08 01:36:33;;;;;;;11.90;10.10;;;16.80;99.90;;;;;;5072844;28;20443;-87
2021/06/08 01:39:04;;;;;;;14.40;10.30;;;16.70;99.90;;;;;;5072691;28;20020;-87
2021/06/08 01:41:30;;;;;;;11.63;10.43;;;16.60;99.90;;;;;;5072951;28;20020;-87
2021/06/08 01:43:56;;;;;;;11.88;10.68;;;16.70;99.90;;;;;;5072548;28;20032;-87
2021/06/08 01:46:22;;;;;;;12.25;10.93;;;16.80;99.90;;;;;;5073561;28;20024;-87
2021/06/08 01:48:49;;;;;;;16.20;11.35;;;16.70;99.90;;;;;;5073024;28;20534;-87
2021/06/08 01:51:42;;;;;;;12.48;10.95;;;16.70;99.90;;;;;;5072774;28;20071;-88
2021/06/08 01:54:45;;;;;;;16.15;12.07;;;16.60;99.90;;;;;;5072455;28;20082;-87
2021/06/08 01:57:22;;;;;;;13.82;11.73;;;16.70;99.90;;;;;;5074136;28;20035;-87
2021/06/08 02:00:13;;;;;;;16.75;12.02;;;16.70;99.90;;;;;;5074284;28;20569;-88
2021/06/08 02:02:58;;;;;;;15.85;12.27;;;16.70;99.90;;;;;;5076149;28;20465;-87
2021/06/08 02:06:01;;;;;;;13.70;11.65;;;16.60;99.90;;;;;;5076017;28;20036;-87
2021/06/08 02:08:55;;;;;;;13.38;11.95;;;16.50;99.90;;;;;;5075942;28;20028;-87
2021/06/08 02:11:45;;;;;;;15.38;11.88;;;16.40;99.90;;;;;;5077621;28;20024;-88
2021/06/08 02:14:30;;;;;;;12.43;10.60;;;16.40;99.90;;;;;;5075647;28;20116;-88
2021/06/08 02:17:06;;;;;;;18.30;12.85;;;16.20;99.90;;;;;;5075765;28;20446;-88
2021/06/08 02:19:37;;;;;;;13.50;12.02;;;16.20;99.90;;;;;;5075703;28;20112;-88
2021/06/08 02:22:05;;;;;;;14.23;12.52;;;16.10;99.90;;;;;;5077175;28;20025;-88
2021/06/08 02:24:31;;;;;;;15.18;13.38;;;16.20;99.90;;;;;;5075677;28;20048;-88
2021/06/08 02:27:03;;;;;;;15.50;13.18;;;16.20;99.90;;;;;;5075585;28;20094;-88
2021/06/08 02:29:30;;;;;;;17.85;13.15;;;16.20;99.90;;;;;;5075722;28;20111;-89
2021/06/08 02:31:57;;;;;;;21.85;13.80;;;16.10;99.90;;;;;;5075923;28;20024;-88
2021/06/08 02:34:23;;;;;;;20.70;13.75;;;16.10;99.90;;;;;;5075181;28;20485;-88
2021/06/08 02:36:52;;;;;;;15.40;13.45;;;16.00;99.90;;;;;;5077435;28;20021;-87
2021/06/08 02:39:19;;;;;;;17.13;13.02;;;16.00;99.90;;;;;;5076077;28;20025;-87
2021/06/08 02:41:45;;;;;;;14.98;13.38;;;16.00;99.90;;;;;;5075898;28;20481;-88
2021/06/08 02:44:12;;;;;;;16.65;14.38;;;15.90;99.90;;;;;;5075086;28;20504;-88
2021/06/08 02:46:39;;;;;;;17.15;14.07;;;15.90;99.90;;;;;;5077152;28;20041;-87
2021/06/08 02:49:06;;;;;;;19.70;14.15;;;15.80;99.90;;;;;;5075385;28;20029;-88
2021/06/08 02:51:36;;;;;;;17.88;14.05;;;15.80;99.90;;;;;;5075107;28;20031;-87
2021/06/08 02:54:03;;;;;;;16.63;13.60;;;15.80;99.90;;;;;;5074506;28;20028;-87
2021/06/08 02:56:29;;;;;;;16.92;15.13;;;15.80;99.90;;;;;;5074972;28;20095;-89
2021/06/08 02:58:55;;;;;;;17.90;14.75;;;15.90;99.90;;;;;;5075526;28;20023;-87
2021/06/08 03:01:21;;;;;;;15.40;13.80;;;15.80;99.90;;;;;;5075384;28;20446;-87
2021/06/08 03:03:50;;;;;;;16.67;14.32;;;15.80;99.90;;;;;;5075272;28;20029;-87
2021/06/08 03:06:27;;;;;;;21.70;14.85;;;15.80;99.90;;;;;;5075012;28;20565;-87
2021/06/08 03:09:04;;;;;;;18.02;15.15;;;15.70;99.90;;;;;;5075670;28;20428;-87
2021/06/08 03:11:38;;;;;;;20.02;15.63;;;15.70;99.90;;;;;;5074951;28;20033;-87
2021/06/08 03:14:08;;;;;;;18.27;16.17;;;15.70;99.90;;;;;;5074966;28;20031;-87
2021/06/08 03:16:38;;;;;;;19.38;15.60;;;15.70;99.90;;;;;;5074803;28;20112;-87
2021/06/08 03:19:06;;;;;;;18.95;15.70;;;15.60;99.90;;;;;;5075104;28;20027;-87
2021/06/08 03:21:37;;;;;;;20.17;16.73;;;15.50;99.90;;;;;;5074751;28;20027;-87
2021/06/08 03:24:06;;;;;;;21.08;16.85;;;15.50;99.90;;;;;;5074874;28;20071;-87
2021/06/08 03:26:35;;;;;;;19.95;17.05;;;15.50;99.90;;;;;;5074687;28;20024;-87
2021/06/08 03:29:12;;;;;;;19.38;17.27;;;15.50;99.90;;;;;;5074581;28;20413;-87
2021/06/08 03:31:44;;;;;;;16.65;14.93;;;15.60;99.90;;;;;;5074340;28;20842;-87
2021/06/08 03:34:15;;;;;;;18.02;16.08;;;15.40;99.90;;;;;;5074571;28;20133;-87
2021/06/08 03:36:48;;;;;;;19.27;17.00;;;15.40;99.90;;;;;;5074428;28;20032;-87
2021/06/08 03:39:20;;;;;;;21.35;16.85;;;15.40;99.90;;;;;;5075883;28;20020;-88
2021/06/08 03:41:47;;;;;;;21.63;16.45;;;15.40;99.90;;;;;;5074481;28;20036;-88
2021/06/08 03:44:18;;;;;;;22.75;17.63;;;15.20;99.90;;;;;;5074239;28;20025;-88
2021/06/08 03:46:48;;;;;;;20.30;16.83;;;15.30;99.90;;;;;;5075186;28;20064;-88
2021/06/08 03:49:15;;;;;;;19.92;15.43;;;15.20;99.90;;;;;;5074430;28;20600;-88
2021/06/08 03:51:42;;;;;;;23.10;17.67;;;15.20;99.90;;;;;;5074091;28;20028;-88
2021/06/08 03:54:10;;;;;;;22.55;18.33;;;15.10;99.90;;;;;;5074043;28;20029;-88
2021/06/08 03:56:41;;;;;;;19.08;16.83;;;15.10;99.90;;;;;;5075671;28;20055;-87
2021/06/08 03:59:10;;;;;;;26.73;18.10;;;15.10;99.90;;;;;;5074888;28;20111;-89
2021/06/08 04:01:37;;;;;;;21.25;17.48;;;15.10;99.90;;;;;;5074781;28;20024;-88
2021/06/08 04:04:05;;;;;;;22.63;16.70;;;15.20;99.90;;;;;;5074096;28;20149;-88
2021/06/08 04:06:31;;;;;;;19.23;16.42;;;15.20;99.90;;;;;;5074217;28;20027;-87
2021/06/08 04:08:57;;;;;;;20.33;16.08;;;15.20;99.90;;;;;;5075044;28;20032;-88
2021/06/08 04:11:23;;;;;;;24.67;18.27;;;15.10;99.90;;;;;;5075488;28;20132;-88
2021/06/08 04:13:54;;;;;;;22.30;19.63;;;15.30;99.90;;;;;;5078134;28;20012;-88
2021/06/08 04:16:20;;;;;;;26.00;23.10;;;15.40;99.90;;;;;;5074180;28;20025;-88
2021/06/08 04:18:46;;;;;;;23.48;18.50;;;15.40;99.90;;;;;;5074240;28;20020;-88
2021/06/08 04:21:14;;;;;;;21.38;17.75;;;15.40;99.90;;;;;;5074339;28;20420;-87
2021/06/08 04:23:40;;;;;;;20.25;18.00;;;15.50;99.90;;;;;;5072940;28;20024;-87
2021/06/08 04:26:05;;;;;;;21.52;17.58;;;15.60;99.90;;;;;;5073265;28;20060;-87
2021/06/08 04:28:31;;;;;;;22.75;18.52;;;15.50;99.90;;;;;;5072921;28;20022;-87
2021/06/08 04:31:00;;;;;;;22.10;18.67;;;15.60;99.90;;;;;;5073159;28;20139;-87
2021/06/08 04:33:29;;;;;;;20.30;16.98;;;15.60;99.90;;;;;;5073269;28;20055;-88
2021/06/08 04:35:56;;;;;;;21.40;18.13;;;15.60;99.90;;;;;;5073108;28;20025;-89
2021/06/08 04:38:22;;;;;;;23.08;18.67;;;15.60;99.90;;;;;;5073062;28;20115;-87
2021/06/08 04:40:50;;;;;;;23.10;17.20;;;15.70;99.90;;;;;;5073359;28;20031;-89
2021/06/08 04:43:23;;;;;;;21.42;17.77;;;15.70;99.90;;;;;;5073210;28;20024;-88
2021/06/08 04:45:49;;;;;;;21.73;18.38;;;15.80;99.90;;;;;;5073595;28;20052;-88
2021/06/08 04:48:15;;;;;;;20.63;18.55;;;15.90;99.90;;;;;;5074480;28;20163;-87
2021/06/08 04:50:43;;;;;;;20.20;17.45;;;15.90;99.90;;;;;;5073522;28;20511;-87
2021/06/08 04:53:09;;;;;;;27.13;18.85;;;16.00;99.90;;;;;;5072966;28;20086;-87
2021/06/08 04:55:35;;;;;;;24.15;18.95;;;16.10;99.90;;;;;;5073459;28;20481;-89
2021/06/08 04:58:00;;;;;;;21.27;18.90;;;16.30;99.90;;;;;;5073435;28;20024;-88
2021/06/08 05:00:37;;;;;;;24.23;20.08;;;16.40;99.90;;;;;;5073135;28;20119;-89
2021/06/08 05:03:13;;;;;;;21.90;19.33;;;16.60;99.90;;;;;;5074171;28;20119;-82
2021/06/08 05:05:42;;;;;;;24.65;19.13;;;16.60;99.90;;;;;;5076861;28;20024;-82
2021/06/08 05:08:40;;;;;;;23.58;20.15;;;16.70;99.90;;;;;;5076544;28;20386;-81
2021/06/08 05:11:11;;;;;;;21.25;19.02;;;16.80;99.90;;;;;;5076667;28;20027;-80
2021/06/08 05:13:37;;;;;;;22.55;18.27;;;16.70;99.90;;;;;;5076216;28;20027;-80
2021/06/08 05:16:04;;;;;;;22.05;17.92;;;16.70;99.90;;;;;;5075680;28;20020;-80
2021/06/08 05:18:31;;;;;;;23.35;19.08;;;16.70;99.90;;;;;;5077276;28;20076;-80
2021/06/08 05:20:58;;;;;;;24.13;19.23;;;16.80;99.90;;;;;;5076114;28;20021;-81
2021/06/08 05:23:25;;;;;;;21.08;18.40;;;16.90;99.90;;;;;;5076971;28;20024;-80
2021/06/08 05:25:52;;;;;;;20.67;18.48;;;17.00;99.90;;;;;;5077606;28;20515;-81
2021/06/08 05:28:19;;;;;;;21.88;17.75;;;17.00;99.90;;;;;;5076643;28;20107;-80
2021/06/08 05:30:47;;;;;;;24.45;17.90;;;17.00;99.90;;;;;;5075190;28;20028;-81
2021/06/08 05:33:19;;;;;;;23.48;17.60;;;17.10;99.90;;;;;;5075078;28;20421;-81
2021/06/08 05:35:45;;;;;;;18.83;16.83;;;17.10;99.90;;;;;;5078095;28;20042;-81
2021/06/08 05:38:11;;;;;;;21.23;17.30;;;17.20;99.90;;;;;;5078247;28;20841;-81
2021/06/08 05:40:39;;;;;;;20.90;16.40;;;17.20;99.90;;;;;;5079747;28;20040;-81
2021/06/08 05:43:05;;;;;;;21.40;17.48;;;17.20;99.90;;;;;;5079198;28;20017;-81
2021/06/08 05:45:32;;;;;;;23.20;17.80;;;17.30;99.90;;;;;;5080846;28;20024;-81
2021/06/08 05:47:58;;;;;;;19.90;17.15;;;17.30;99.90;;;;;;5078682;28;20027;-80
2021/06/08 05:50:24;;;;;;;21.70;17.05;;;17.40;99.90;;;;;;5079497;28;20024;-81
2021/06/08 05:52:53;;;;;;;21.70;17.20;;;17.20;99.90;;;;;;5079335;28;20534;-81
2021/06/08 05:55:24;;;;;;;19.83;17.92;;;17.20;99.90;;;;;;5077251;28;20016;-81
2021/06/08 05:57:54;;;;;;;24.50;17.48;;;17.10;99.90;;;;;;5064404;28;20021;-81
2021/06/08 06:00:21;;;;;;;20.95;18.05;;;17.20;99.90;;;;;;5061401;28;20025;-82
2021/06/08 06:02:48;;;;;;;19.50;17.33;;;17.20;99.90;;;;;;5064853;28;20032;-82
2021/06/08 06:05:15;;;;;;;21.05;17.73;;;17.20;99.90;;;;;;5060753;28;20025;-81
2021/06/08 06:07:43;;;;;;;22.85;18.90;;;17.30;99.90;;;;;;5071743;28;20488;-82
2021/06/08 06:10:10;;;;;;;22.02;17.90;;;17.30;99.90;;;;;;5072894;28;20094;-81
2021/06/08 06:12:38;;;;;;;20.33;17.85;;;17.30;99.90;;;;;;5073787;28;20028;-80
2021/06/08 06:15:09;;;;;;;29.67;17.70;;;17.40;99.90;;;;;;5067480;28;20029;-80
2021/06/08 06:17:37;;;;;;;21.92;18.58;;;17.50;99.90;;;;;;5065477;28;20397;-80
2021/06/08 06:20:10;;;;;;;26.20;19.00;;;17.80;99.90;;;;;;5070918;28;20012;-81
2021/06/08 06:22:37;;;;;;;26.27;19.70;;;18.10;99.90;;;;;;5071079;28;20028;-82
2021/06/08 06:25:09;;;;;;;24.33;18.75;;;18.30;99.90;;;;;;5057295;28;20070;-82
2021/06/08 06:27:42;;;;;;;26.52;19.35;;;18.30;99.90;;;;;;5068329;28;20060;-81
2021/06/08 06:30:10;;;;;;;22.63;18.92;;;18.40;99.90;;;;;;5071702;28;20025;-81
2021/06/08 06:32:36;;;;;;;23.00;19.08;;;18.60;99.90;;;;;;5068060;28;20063;-83
2021/06/08 06:35:07;;;;;;;26.77;18.05;;;18.70;99.90;;;;;;5068260;28;20025;-82
2021/06/08 06:37:35;;;;;;;20.40;18.20;;;19.00;99.90;;;;;;5066507;28;20020;-81
2021/06/08 06:40:02;;;;;;;19.80;17.80;;;19.30;99.90;;;;;;5056606;28;20024;-81
2021/06/08 06:42:38;;;;;;;23.92;16.83;;;20.30;99.90;;;;;;5069383;28;20074;-81
2021/06/08 06:45:08;;;;;;;18.08;15.75;;;21.50;99.90;;;;;;5068975;28;20032;-82
2021/06/08 06:47:35;;;;;;;17.75;14.88;;;22.60;99.90;;;;;;5074348;28;20029;-82
2021/06/08 06:50:00;;;;;;;16.05;14.00;;;23.80;99.90;;;;;;5071564;28;20037;-82
2021/06/08 06:52:26;;;;;;;16.35;13.60;;;24.20;99.90;;;;;;5074230;28;20020;-82
2021/06/08 06:54:52;;;;;;;22.20;14.45;;;24.10;99.90;;;;;;5073064;28;20047;-82
2021/06/08 06:57:18;;;;;;;15.90;14.13;;;24.00;99.90;;;;;;5073739;28;20065;-82
2021/06/08 06:59:44;;;;;;;14.57;13.07;;;24.50;99.80;;;;;;5068048;28;20063;-82
2021/06/08 07:02:13;;;;;;;20.10;14.57;;;24.20;99.30;;;;;;5073700;28;20082;-82
2021/06/08 07:04:41;;;;;;;16.02;13.75;;;23.70;99.90;;;;;;5063541;28;20506;-82
2021/06/08 07:07:09;;;;;;;19.85;13.35;;;23.60;99.90;;;;;;5070313;28;20496;-82
2021/06/08 07:09:36;;;;;;;18.92;13.32;;;24.50;99.90;;;;;;5072911;28;20378;-81
2021/06/08 07:12:02;;;;;;;16.60;14.57;;;25.60;97.20;;;;;;5075791;28;20078;-83
2021/06/08 07:14:30;;;;;;;18.00;12.70;;;25.10;96.70;;;;;;5069345;28;20075;-82
2021/06/08 07:16:56;;;;;;;15.82;12.57;;;25.50;97.30;;;;;;5077629;28;20097;-82
2021/06/08 07:19:25;;;;;;;14.60;13.10;;;26.50;94.20;;;;;;5078370;28;20040;-82
2021/06/08 07:21:51;;;;;;;15.25;13.23;;;27.10;91.70;;;;;;5074936;28;20017;-82
2021/06/08 07:24:17;;;;;;;14.35;12.85;;;26.40;91.10;;;;;;5075060;28;20045;-82
2021/06/08 07:26:43;;;;;;;21.58;12.68;;;25.90;92.60;;;;;;5058722;28;20469;-83
2021/06/08 07:29:10;;;;;;;13.93;12.63;;;26.70;91.90;;;;;;5065289;28;20029;-83
2021/06/08 07:31:49;;;;;;;15.30;11.23;;;27.40;87.90;;;;;;5067878;28;20035;-82
2021/06/08 07:34:33;;;;;;;15.23;12.85;;;26.80;89.10;;;;;;5062895;28;20073;-82
2021/06/08 07:37:00;;;;;;;16.77;12.63;;;27.00;85.80;;;;;;5065497;28;20020;-82
2021/06/08 07:39:29;;;;;;;13.73;12.43;;;27.70;84.80;;;;;;5063605;28;20020;-82
2021/06/08 07:42:26;;;;;;;13.57;12.38;;;27.80;83.60;;;;;;5067451;28;20031;-83
2021/06/08 07:45:01;;;;;;;13.23;11.90;;;27.00;87.20;;;;;;5068114;28;20032;-83
2021/06/08 07:47:31;;;;;;;13.32;11.93;;;27.60;86.10;;;;;;5065455;28;20029;-82
2021/06/08 07:49:57;;;;;;;12.82;11.10;;;27.90;82.60;;;;;;5074109;28;20016;-82
2021/06/08 07:52:27;;;;;;;11.15;9.98;;;28.70;80.60;;;;;;5076258;28;20428;-81
2021/06/08 07:54:53;;;;;;;12.38;9.95;;;29.40;79.80;;;;;;5075274;28;20115;-82
2021/06/08 07:57:20;;;;;;;12.52;9.15;;;29.80;73.80;;;;;;5066880;28;20465;-82
2021/06/08 07:59:46;;;;;;;10.07;9.05;;;30.40;69.90;;;;;;5064740;28;20017;-83
2021/06/08 08:02:17;;;;;;;10.13;9.02;;;30.60;68.10;;;;;;5070701;28;20115;-82
2021/06/08 08:04:48;;;;;;;11.27;9.23;;;30.60;66.70;;;;;;5073490;28;20488;-82
2021/06/08 08:07:15;;;;;;;;;;;30.20;66.80;;;;;;5069371;28;20123;-82
2021/06/08 08:09:41;;;;;;;9.52;8.63;;;29.50;66.80;;;;;;5067053;28;19912;-82
2021/06/08 08:12:07;;;;;;;12.52;8.45;;;29.70;68.00;;;;;;5071308;28;20119;-83
2021/06/08 08:14:33;;;;;;;14.20;9.27;;;29.90;66.50;;;;;;5067820;28;20032;-83
2021/06/08 08:17:00;;;;;;;10.07;8.45;;;29.60;65.00;;;;;;5068600;28;20035;-84
2021/06/08 08:19:26;;;;;;;20.95;9.73;;;29.60;65.10;;;;;;5069533;28;20234;-83
2021/06/08 08:21:52;;;;;;;12.20;10.00;;;28.90;67.70;;;;;;5064779;28;20123;-82
2021/06/08 08:24:18;;;;;;;13.98;10.65;;;28.20;69.80;;;;;;5067690;28;20127;-83
2021/06/08 08:26:44;;;;;;;11.18;9.70;;;28.20;70.60;;;;;;5073493;28;20039;-83
2021/06/08 08:29:10;;;;;;;11.15;10.05;;;28.80;70.40;;;;;;5069783;28;20625;-83
2021/06/08 08:31:37;;;;;;;10.55;9.50;;;30.10;66.00;;;;;;5060034;28;20024;-82
2021/06/08 08:34:04;;;;;;;13.82;10.05;;;30.40;63.90;;;;;;5067023;28;20050;-85
2021/06/08 08:36:34;;;;;;;10.50;9.52;;;30.50;65.20;;;;;;5060056;28;20052;-85
2021/06/08 08:39:00;;;;;;;12.18;10.15;;;30.50;63.30;;;;;;5059059;28;20025;-85
2021/06/08 08:41:27;;;;;;;12.38;10.20;;;30.50;62.90;;;;;;5062124;28;20020;-85
2021/06/08 08:43:54;;;;;;;11.35;10.25;;;30.30;62.60;;;;;;5070474;28;20021;-85
2021/06/08 08:46:21;;;;;;;10.10;9.18;;;30.70;62.30;;;;;;5055360;28;20025;-85
2021/06/08 08:48:53;;;;;;;11.27;10.18;;;31.30;62.40;;;;;;5073365;28;20032;-85
2021/06/08 08:51:23;;;;;;;10.70;9.70;;;31.70;59.80;;;;;;5069757;28;20035;-85
2021/06/08 08:53:53;;;;;;;16.08;11.10;;;32.20;58.10;;;;;;5069976;28;20508;-86
2021/06/08 08:56:22;;;;;;;11.18;9.90;;;32.20;58.10;;;;;;5066885;28;20048;-85
2021/06/08 08:58:47;;;;;;;10.77;9.68;;;32.30;57.40;;;;;;5072188;28;20021;-85
2021/06/08 09:01:13;;;;;;;12.38;9.90;;;30.90;59.50;;;;;;5064391;28;20023;-85
2021/06/08 09:03:40;;;;;;;12.02;9.43;;;29.80;63.40;;;;;;5070165;28;20025;-85
2021/06/08 09:06:07;;;;;;;11.30;10.30;;;29.00;66.00;;;;;;5058985;28;20021;-85
2021/06/08 09:08:33;;;;;;;12.80;10.82;;;28.60;65.60;;;;;;5071746;28;20028;-82
2021/06/08 09:11:00;;;;;;;11.50;9.98;;;27.80;66.60;;;;;;5063759;28;20013;-83
2021/06/08 09:13:26;;;;;;;12.65;11.30;;;28.70;65.70;;;;;;5075864;28;20084;-80
2021/06/08 09:15:56;;;;;;;13.10;10.80;;;29.30;63.60;;;;;;5078273;28;20392;-83
2021/06/08 09:18:25;;;;;;;13.25;11.23;;;29.50;62.80;;;;;;5072615;28;20032;-83
2021/06/08 09:20:52;;;;;;;11.77;10.48;;;28.40;64.90;;;;;;5073477;28;20016;-83
2021/06/08 09:23:24;;;;;;;11.13;9.65;;;28.30;64.10;;;;;;5069844;28;20028;-83
2021/06/08 09:25:51;;;;;;;10.90;9.80;;;28.10;66.00;;;;;;5077372;28;20071;-84
2021/06/08 09:28:23;;;;;;;10.52;9.63;;;27.90;64.90;;;;;;5062771;28;20040;-83
2021/06/08 09:31:09;;;;;;;12.35;10.95;;;28.60;62.40;;;;;;5058196;28;20029;-84
2021/06/08 09:33:38;;;;;;;13.50;10.80;;;28.10;64.60;;;;;;5069537;28;20036;-82
2021/06/08 09:36:07;;;;;;;13.90;11.77;;;28.40;64.10;;;;;;5078719;28;20027;-84
2021/06/08 09:39:00;;;;;;;10.95;9.95;;;28.20;65.70;;;;;;5070626;28;20043;-81
2021/06/08 09:41:41;;;;;;;11.70;10.48;;;29.10;64.40;;;;;;5048197;28;20040;-82
2021/06/08 09:44:10;;;;;;;11.50;9.93;;;30.10;61.50;;;;;;5062174;28;20036;-82
2021/06/08 09:46:59;;;;;;;22.90;10.65;;;30.60;60.00;;;;;;5075572;28;20036;-83
2021/06/08 09:49:31;;;;;;;12.38;9.15;;;31.10;58.10;;;;;;5064294;28;20021;-82
2021/06/08 09:52:06;;;;;;;11.73;9.13;;;31.90;56.60;;;;;;5070343;28;20130;-82
2021/06/08 09:54:36;;;;;;;8.70;7.93;;;31.70;56.40;;;;;;5075177;28;20029;-82
2021/06/08 09:57:17;;;;;;;9.93;7.18;;;31.50;52.90;;;;;;5075972;28;20490;-81
2021/06/08 09:59:48;;;;;;;9.55;8.55;;;31.40;56.20;;;;;;5053555;28;20065;-81
2021/06/08 10:02:25;;;;;;;9.70;8.45;;;32.00;55.00;;;;;;5068812;28;20021;-81
2021/06/08 10:05:14;;;;;;;8.60;7.80;;;32.20;54.20;;;;;;5065213;28;20048;-82
2021/06/08 10:07:40;;;;;;;8.50;7.70;;;31.90;55.30;;;;;;5076803;28;20043;-84
2021/06/08 10:10:35;;;;;;;12.23;8.38;;;32.40;54.20;;;;;;5062445;28;20024;-84
2021/06/08 10:13:07;;;;;;;8.77;7.90;;;31.90;54.00;;;;;;5044140;28;20036;-83
2021/06/08 10:15:39;;;;;;;;;;;30.60;55.20;;;;;;5072121;28;20119;-82
2021/06/08 10:18:10;;;;;;;9.80;7.15;;;30.00;57.20;;;;;;5078573;28;19911;-83
2021/06/08 10:20:41;;;;;;;13.90;7.82;;;30.60;57.00;;;;;;5067976;28;20017;-83
2021/06/08 10:23:21;;;;;;;14.93;7.75;;;30.90;55.40;;;;;;5074764;28;20024;-84
2021/06/08 10:25:49;;;;;;;10.85;8.52;;;30.90;54.70;;;;;;5071152;28;20466;-83
2021/06/08 10:28:16;;;;;;;19.90;8.20;;;30.20;55.00;;;;;;5070759;28;20028;-83
2021/06/08 10:30:43;;;;;;;10.90;8.88;;;29.70;55.70;;;;;;5068921;28;20070;-84
2021/06/08 10:33:09;;;;;;;14.55;8.77;;;29.20;55.60;;;;;;5077689;28;20037;-86
2021/06/08 10:35:36;;;;;;;11.10;8.18;;;28.40;57.00;;;;;;5076151;28;20111;-87
2021/06/08 10:38:06;;;;;;;11.98;8.00;;;28.00;57.60;;;;;;5075948;28;20107;-88
2021/06/08 10:40:34;;;;;;;9.20;8.18;;;28.70;57.10;;;;;;5052487;28;20064;-86
2021/06/08 10:43:00;;;;;;;18.10;7.70;;;29.90;54.70;;;;;;5073480;28;20048;-86
2021/06/08 10:45:37;;;;;;;8.18;7.38;;;31.00;53.50;;;;;;5062621;28;20071;-85
2021/06/08 10:48:19;;;;;;;11.38;7.75;;;32.10;52.10;;;;;;5067539;28;20541;-85
2021/06/08 10:50:50;;;;;;;14.27;7.57;;;32.90;50.50;;;;;;5065036;28;20029;-85
2021/06/08 10:53:36;;;;;;;10.00;8.48;;;32.20;51.30;;;;;;5072701;28;20485;-84
2021/06/08 10:56:28;;;;;;;8.48;7.20;;;31.50;51.60;;;;;;5070659;28;20684;-83
2021/06/08 10:59:00;;;;;;;7.47;6.75;;;30.50;53.50;;;;;;5071653;28;20497;-84
2021/06/08 11:01:37;;;;;;;9.48;7.68;;;30.70;54.50;;;;;;5067957;28;20086;-83
2021/06/08 11:04:15;;;;;;;8.02;7.15;;;30.20;54.50;;;;;;5073466;28;20025;-83
2021/06/08 11:06:56;;;;;;;7.93;7.00;;;30.70;53.40;;;;;;5073370;28;20056;-87
2021/06/08 11:09:32;;;;;;;8.90;7.20;;;29.70;53.40;;;;;;5060290;28;20021;-87
2021/06/08 11:12:09;;;;;;;7.38;6.70;;;29.20;53.50;;;;;;5069479;28;20050;-80
2021/06/08 11:14:38;;;;;;;9.27;6.57;;;29.70;54.00;;;;;;5057806;28;20040;-80
2021/06/08 11:17:08;;;;;;;8.85;5.63;;;31.20;52.30;;;;;;5052792;28;20029;-81
2021/06/08 11:19:56;;;;;;;10.55;6.97;;;32.10;52.20;;;;;;5063179;28;20102;-81
2021/06/08 11:22:34;;;;;;;9.90;7.20;;;32.50;49.90;;;;;;5072322;28;20020;-81
2021/06/08 11:25:02;;;;;;;11.20;6.93;;;31.20;51.30;;;;;;5063703;28;20044;-81
2021/06/08 11:27:57;;;;;;;8.88;7.18;;;30.80;51.60;;;;;;5072226;28;20070;-81
2021/06/08 11:30:29;;;;;;;10.75;7.82;;;29.70;53.60;;;;;;5062309;28;20024;-80
2021/06/08 11:32:55;;;;;;;8.48;7.63;;;28.70;54.90;;;;;;5059518;28;20548;-80
2021/06/08 11:35:39;;;;;;;10.02;7.25;;;28.30;55.60;;;;;;5058503;28;20067;-81
2021/06/08 11:38:23;;;;;;;7.65;6.95;;;28.50;55.50;;;;;;5067235;28;20112;-82
2021/06/08 11:41:03;;;;;;;7.95;7.13;;;28.60;54.70;;;;;;5046068;28;20891;-80
2021/06/08 11:43:31;;;;;;;11.57;6.82;;;28.60;54.70;;;;;;5069512;28;20146;-80
2021/06/08 11:46:10;;;;;;;9.93;7.20;;;29.00;53.30;;;;;;5072313;28;20099;-80
2021/06/08 11:48:41;;;;;;;7.68;5.53;;;30.40;52.80;;;;;;5070642;28;20386;-80
2021/06/08 11:51:20;;;;;;;7.25;6.28;;;31.60;49.70;;;;;;5071499;28;20028;-80
2021/06/08 11:54:10;;;;;;;11.98;8.00;;;32.60;48.40;;;;;;5058827;28;20028;-79
2021/06/08 11:57:02;;;;;;;9.63;6.80;;;31.90;48.70;;;;;;5072767;28;20028;-80
2021/06/08 11:59:33;;;;;;;8.68;7.00;;;31.70;50.60;;;;;;5067278;28;20028;-81
2021/06/08 12:02:02;;;;;;;9.35;6.63;;;32.60;48.40;;;;;;5074175;28;20025;-82
2021/06/08 12:04:29;;;;;;;9.75;6.90;;;33.30;47.70;;;;;;5075784;28;20109;-82
2021/06/08 12:06:56;;;;;;;7.75;6.95;;;33.40;46.60;;;;;;5074914;28;20025;-81
2021/06/08 12:09:23;;;;;;;19.25;7.38;;;32.60;48.40;;;;;;5058083;28;20111;-82
2021/06/08 12:11:50;;;;;;;8.13;6.65;;;32.90;47.60;;;;;;5073178;28;20026;-82
2021/06/08 12:14:18;;;;;;;10.88;6.13;;;33.20;46.30;;;;;;5062073;28;20044;-83
2021/06/08 12:16:52;;;;;;;6.28;5.68;;;33.00;46.70;;;;;;5070556;28;20020;-84
2021/06/08 12:19:19;;;;;;;7.30;6.00;;;33.80;45.90;;;;;;5058948;28;20020;-84
2021/06/08 12:21:48;;;;;;;6.13;5.50;;;34.60;43.90;;;;;;5070839;28;20021;-84
2021/06/08 12:24:19;;;;;;;8.55;6.43;;;34.10;43.70;;;;;;5059942;28;20025;-83
2021/06/08 12:26:53;;;;;;;9.68;7.28;;;32.90;45.10;;;;;;5058128;28;20036;-84
2021/06/08 12:29:18;;;;;;;8.45;6.38;;;32.30;46.30;;;;;;5068890;28;20029;-82
2021/06/08 12:31:58;;;;;;;9.05;5.32;;;33.30;45.60;;;;;;5066655;28;20035;-83
2021/06/08 12:34:25;;;;;;;10.40;6.00;;;33.50;44.80;;;;;;5067434;28;20025;-83
2021/06/08 12:36:53;;;;;;;5.93;5.43;;;32.50;45.90;;;;;;5066761;28;20020;-85
2021/06/08 12:39:23;;;;;;;7.88;5.43;;;31.90;47.30;;;;;;5066043;28;20058;-83
2021/06/08 12:41:49;;;;;;;6.65;5.15;;;32.00;47.30;;;;;;5077198;28;20025;-84
2021/06/08 12:44:29;;;;;;;7.72;5.70;;;33.30;45.20;;;;;;5075338;28;20027;-84
2021/06/08 12:46:57;;;;;;;7.38;5.50;;;33.30;45.40;;;;;;5073357;28;20020;-83
2021/06/08 12:49:22;;;;;;;8.32;6.60;;;31.80;46.30;;;;;;5073462;28;20123;-84